Flight Briefing for CMB805

Departure Arrival
Norfolk Naval Station (Chambers Field) (KNGU)
Click to view FAA NOTAMS
Joint Base McGuire Dix Lakehurst (KWRI)
Click to view FAA NOTAMS
Departure Time Arrival Time
N/A N/A
Aircraft Distance
B757-200SF 701nm
Departure METAR Arrival METAR
KNGU 212259Z 04011G18KT 10SM FEW080 BKN300 21/12 A3005 RMK AO2 SLP176 T02110117 KWRI 212256Z AUTO 32015KT 10SM FEW160 21/04 A2996 RMK AO2 SLP145 T02110042
Suggested Route





View recent IFR Routes data
Notes
USTRANSCOM CONTRACT FLIGHT

Charts and Procedures

Charts for KNGU
No chart available
Charts for KWRI
No chart available

Windy.com Weather Map